createdAt,value
2023-02-27T00:03:00.456Z,99314.19
2023-02-27T00:06:02.333Z,99325.28
2023-02-27T00:09:04.439Z,99320.59
2023-02-27T00:12:07.260Z,99334.75
2023-02-27T00:15:14.739Z,99315.38
2023-02-27T00:18:16.610Z,99327.09
2023-02-27T00:21:18.560Z,99334.03
2023-02-27T00:24:22.510Z,99331.06
2023-02-27T00:27:25.011Z,99320.84
2023-02-27T00:30:27.393Z,99323.38
2023-02-27T00:33:29.354Z,99323.31
2023-02-27T00:36:31.493Z,99313.47
2023-02-27T00:39:33.647Z,99321.88
2023-02-27T00:42:36.158Z,99331.06
2023-02-27T00:45:38.209Z,99306.53
2023-02-27T00:48:40.130Z,99333.47
2023-02-27T00:51:43.672Z,99334.88
2023-02-27T00:54:45.543Z,99333.69
2023-02-27T00:57:47.679Z,99337.03
2023-02-27T01:00:50.408Z,99339.47
2023-02-27T01:03:52.449Z,99342.75
2023-02-27T01:06:54.486Z,99333.72
2023-02-27T01:09:57.201Z,99343.28
2023-02-27T01:12:59.250Z,99318.44
2023-02-27T01:16:01.661Z,99330.63
2023-02-27T01:19:04.863Z,99332.38
2023-02-27T01:22:07.208Z,99337.19
2023-02-27T01:25:09.979Z,99334.47
2023-02-27T01:28:14.819Z,99340.38
2023-02-27T01:31:18.956Z,99340.19
2023-02-27T01:34:21.705Z,99330.03
2023-02-27T01:37:23.603Z,99343.03
2023-02-27T01:40:25.812Z,99334.66
2023-02-27T01:43:28.028Z,99355.56
2023-02-27T01:46:31.369Z,99353.13
2023-02-27T01:49:34.816Z,99372.41
2023-02-27T01:52:39.610Z,99350.66
2023-02-27T01:55:42.730Z,99372.75
2023-02-27T01:58:48.044Z,99363.31
2023-02-27T02:01:51.005Z,99373.59
2023-02-27T02:04:54.948Z,99367.50
2023-02-27T02:07:58.371Z,99374.31
2023-02-27T02:11:02.210Z,99384.34
2023-02-27T02:14:04.612Z,99383.56
2023-02-27T02:17:45.466Z,99396.16
2023-02-27T02:21:20.641Z,99409.69
2023-02-27T02:25:15.102Z,99386.97
2023-02-27T02:28:34.678Z,99400.75
2023-02-27T02:32:27.377Z,99411.53
2023-02-27T02:35:53.953Z,99405.78
2023-02-27T02:39:03.854Z,99405.59
2023-02-27T02:42:31.840Z,99427.63
2023-02-27T02:45:47.335Z,99404.69
2023-02-27T02:49:31.077Z,99413.38
2023-02-27T02:53:06.638Z,99418.44
2023-02-27T02:56:34.946Z,99420.94
2023-02-27T02:59:44.714Z,99435.97
2023-02-27T03:03:03.299Z,99431.75
2023-02-27T03:06:19.004Z,99435.44
2023-02-27T03:09:36.747Z,99419.09
2023-02-27T03:12:45.023Z,99441.22
2023-02-27T03:15:58.985Z,99443.44
2023-02-27T03:19:33.364Z,99435.94
2023-02-27T03:22:42.466Z,99443.75
2023-02-27T03:25:46.397Z,99435.94
2023-02-27T03:28:55.808Z,99440.25
2023-02-27T03:32:03.493Z,99456.34
2023-02-27T03:35:07.411Z,99481.56
2023-02-27T03:38:29.388Z,99459.59
2023-02-27T03:41:37.420Z,99455.28
2023-02-27T03:45:00.703Z,99482.72
2023-02-27T03:48:04.110Z,99456.28
2023-02-27T03:51:06.177Z,99454.81
2023-02-27T03:54:17.100Z,99448.72
2023-02-27T03:57:19.144Z,99453.84
2023-02-27T04:00:23.704Z,99457.19
2023-02-27T04:03:26.804Z,99453.75
2023-02-27T04:06:48.538Z,99453.72
2023-02-27T04:10:21.605Z,99471.41
2023-02-27T04:13:38.694Z,99500.19
2023-02-27T04:16:52.542Z,99465.50
2023-02-27T04:20:18.576Z,99461.41
2023-02-27T04:23:28.998Z,99462.22
2023-02-27T04:26:37.496Z,99455.38
2023-02-27T04:30:19.684Z,99468.25
2023-02-27T04:33:39.910Z,99463.84
2023-02-27T04:36:46.563Z,99459.09
2023-02-27T04:39:54.922Z,99462.38
2023-02-27T04:43:00.782Z,99472.56
2023-02-27T04:46:06.462Z,99469.91
2023-02-27T04:49:28.688Z,99487.72
2023-02-27T04:52:37.421Z,99490.09
2023-02-27T04:55:47.465Z,99491.06
2023-02-27T04:59:00.629Z,99491.09
2023-02-27T05:02:08.954Z,99489.25
2023-02-27T05:05:18.238Z,99517.31
2023-02-27T05:08:39.384Z,99508.97
2023-02-27T05:11:56.939Z,99496.38
2023-02-27T05:15:08.018Z,99508.72
2023-02-27T05:18:14.096Z,99502.75
2023-02-27T05:21:34.001Z,99543.50
2023-02-27T05:39:54.363Z,99562.84
2023-02-27T05:43:05.845Z,99561.25
2023-02-27T05:46:14.764Z,99563.13
2023-02-27T05:49:25.918Z,99560.38
2023-02-27T05:52:30.417Z,99558.47
2023-02-27T05:55:39.286Z,99556.00
2023-02-27T05:58:45.988Z,99604.91
2023-02-27T06:01:47.995Z,99584.69
2023-02-27T06:04:50.087Z,99592.13
2023-02-27T06:07:52.084Z,99600.56
2023-02-27T06:43:05.569Z,99623.81
2023-02-27T06:46:07.690Z,99604.19
2023-02-27T06:49:10.001Z,99638.63
2023-02-27T06:52:11.978Z,99616.91
2023-02-27T06:55:19.937Z,99610.72
2023-02-27T06:58:21.998Z,99624.88
2023-02-27T07:01:26.385Z,99628.19
2023-02-27T07:04:28.511Z,99644.13
2023-02-27T07:07:34.018Z,99636.38
2023-02-27T07:10:40.072Z,99656.00
2023-02-27T07:13:42.328Z,99644.97
2023-02-27T07:16:44.214Z,99653.03
2023-02-27T07:19:46.165Z,99656.41
2023-02-27T07:22:48.200Z,99668.19
2023-02-27T07:25:50.175Z,99672.31
2023-02-27T07:28:52.032Z,99650.84
2023-02-27T07:31:54.095Z,99685.59
2023-02-27T07:34:56.052Z,99690.72
2023-02-27T07:37:57.922Z,99643.94
2023-02-27T07:40:59.955Z,99736.00
2023-02-27T07:44:02.146Z,99689.22
2023-02-27T07:47:04.178Z,99681.13
2023-02-27T07:50:06.442Z,99699.53
2023-02-27T07:53:08.914Z,99704.81
2023-02-27T07:56:11.046Z,99697.88
2023-02-27T07:59:13.016Z,99690.91
2023-02-27T08:02:17.956Z,99691.34
2023-02-27T08:05:19.918Z,99689.53
2023-02-27T08:08:21.976Z,99706.13
2023-02-27T08:11:23.960Z,99722.41
2023-02-27T08:14:25.967Z,99707.50
2023-02-27T08:17:27.830Z,99716.34
2023-02-27T08:20:29.863Z,99735.47
2023-02-27T08:23:32.723Z,99741.75
2023-02-27T08:26:34.858Z,99721.38
2023-02-27T08:29:37.103Z,99734.59
2023-02-27T08:32:39.419Z,99735.13
2023-02-27T08:35:41.332Z,99738.72
2023-02-27T08:38:43.676Z,99740.22
2023-02-27T08:41:45.602Z,99745.31
2023-02-27T08:44:47.588Z,99740.44
2023-02-27T08:47:49.454Z,99748.16
2023-02-27T08:50:51.903Z,99766.25
2023-02-27T08:53:56.010Z,99783.75
2023-02-27T08:56:57.871Z,99727.25
2023-02-27T08:59:59.792Z,99772.97
2023-02-27T09:03:02.145Z,99776.06
2023-02-27T09:06:05.288Z,99773.53
2023-02-27T09:09:07.320Z,99785.66
2023-02-27T09:12:09.468Z,99789.09
2023-02-27T09:15:12.210Z,99786.69
2023-02-27T09:18:14.683Z,99801.34
2023-02-27T09:21:17.653Z,99819.09
2023-02-27T09:24:20.905Z,99820.19
2023-02-27T09:27:23.956Z,99812.13
2023-02-27T09:30:26.646Z,99807.63
2023-02-27T09:33:29.319Z,99816.84
2023-02-27T09:36:31.415Z,99820.31
2023-02-27T09:39:33.601Z,99807.75
2023-02-27T09:42:45.553Z,99825.50
2023-02-27T09:45:52.513Z,99817.53
2023-02-27T09:48:59.838Z,99817.25
2023-02-27T09:52:02.364Z,99847.31
2023-02-27T09:55:17.468Z,99829.28
2023-02-27T09:58:37.736Z,99836.28
2023-02-27T10:02:09.167Z,99846.13
2023-02-27T10:05:31.204Z,99848.78
2023-02-27T10:08:48.651Z,99844.09
2023-02-27T10:12:02.605Z,99860.97
2023-02-27T10:15:26.036Z,99868.19
2023-02-27T10:18:33.355Z,99888.94
2023-02-27T10:21:41.187Z,99871.38
2023-02-27T10:24:57.003Z,99869.81
2023-02-27T10:28:11.160Z,99859.63
2023-02-27T10:31:21.438Z,99891.13
2023-02-27T10:34:27.090Z,99867.50
2023-02-27T10:37:30.196Z,99864.84
2023-02-27T10:40:36.446Z,99916.59
2023-02-27T10:43:38.631Z,99879.91
2023-02-27T10:46:40.986Z,99865.88
2023-02-27T10:49:44.167Z,99879.75
2023-02-27T10:52:55.647Z,99877.97
2023-02-27T10:56:01.633Z,99904.44
2023-02-27T10:59:17.306Z,99887.38
2023-02-27T11:02:23.472Z,99889.06
2023-02-27T11:05:29.017Z,99884.34
2023-02-27T11:08:32.599Z,99891.16
2023-02-27T11:11:34.702Z,99910.56
2023-02-27T11:14:49.841Z,99899.66
2023-02-27T11:17:53.170Z,99897.09
2023-02-27T11:21:19.614Z,99896.38
2023-02-27T11:24:21.669Z,99888.72
2023-02-27T11:27:29.961Z,99896.81
2023-02-27T13:22:17.003Z,99939.19
2023-02-27T13:25:20.007Z,99945.81
2023-02-27T13:28:27.547Z,99952.56
2023-02-27T13:45:48.567Z,99971.56
2023-02-27T13:48:53.676Z,99966.09
2023-02-27T13:51:59.371Z,99968.75
2023-02-27T13:55:11.886Z,99973.25
2023-02-27T13:58:18.237Z,99976.31
2023-02-27T14:01:28.567Z,99970.50
2023-02-27T14:04:38.337Z,99984.66
2023-02-27T14:08:00.703Z,99981.09
2023-02-27T14:11:17.224Z,99982.78
2023-02-27T14:14:47.027Z,99981.56
2023-02-27T14:17:56.840Z,99994.16
2023-02-27T14:21:01.503Z,99995.84
2023-02-27T14:24:04.360Z,100006.06
2023-02-27T14:27:24.058Z,100002.81
2023-02-27T14:30:44.669Z,100017.66
2023-02-27T14:33:50.523Z,100022.41
2023-02-27T14:36:55.460Z,100020.72
2023-02-27T14:40:01.229Z,100026.81
2023-02-27T14:43:22.339Z,100040.41
2023-02-27T14:46:24.123Z,100041.06
2023-02-27T14:49:30.015Z,100024.72
2023-02-27T14:52:41.324Z,100033.31
2023-02-27T14:55:53.964Z,100037.78
2023-02-27T14:59:04.390Z,100043.53
2023-02-27T15:02:18.797Z,100041.38
2023-02-27T15:05:28.755Z,100045.84
2023-02-27T15:08:36.176Z,100050.25
2023-02-27T15:11:43.195Z,100056.72
2023-02-27T15:14:49.940Z,100064.34
2023-02-27T15:34:17.048Z,100098.84
2023-02-27T15:43:57.437Z,100109.88
2023-02-27T15:48:03.326Z,100129.66
2023-02-27T15:56:42.413Z,100130.00
2023-02-27T15:59:44.739Z,100125.94
2023-02-27T16:02:54.262Z,100130.84
2023-02-27T16:05:57.222Z,100139.28
2023-02-27T16:09:28.893Z,100140.25
2023-02-27T16:12:38.249Z,100147.06
2023-02-27T16:15:41.110Z,100148.84
2023-02-27T16:18:48.651Z,100149.88
2023-02-27T16:22:04.118Z,100155.56
2023-02-27T16:25:18.469Z,100160.91
2023-02-27T16:28:20.432Z,100156.88
2023-02-27T16:31:28.058Z,100163.41
2023-02-27T16:34:45.776Z,100173.72
2023-02-27T16:37:50.300Z,100178.81
2023-02-27T16:40:52.581Z,100173.78
2023-02-27T16:43:55.816Z,100172.97
2023-02-27T16:46:58.970Z,100179.00
2023-02-27T16:50:00.901Z,100176.19
2023-02-27T16:53:02.964Z,100183.94
2023-02-27T16:56:05.215Z,100184.78
2023-02-27T16:59:07.530Z,100187.47
2023-02-27T17:02:14.919Z,100199.16
2023-02-27T17:05:17.918Z,100183.94
2023-02-27T17:08:22.303Z,100189.97
2023-02-27T17:11:24.295Z,100192.69
2023-02-27T17:14:26.255Z,100198.63
2023-02-27T17:17:28.366Z,100201.03
2023-02-27T17:20:30.670Z,100197.69
2023-02-27T17:23:32.653Z,100212.13
2023-02-27T17:26:35.369Z,100198.69
2023-02-27T17:29:39.120Z,100192.75
2023-02-27T17:32:41.099Z,100199.41
2023-02-27T17:35:43.065Z,100198.56
2023-02-27T17:38:45.011Z,100192.72
2023-02-27T17:41:47.701Z,100195.25
2023-02-27T17:44:49.774Z,100201.16
2023-02-27T17:47:51.680Z,100195.38
2023-02-27T17:50:53.897Z,100198.69
2023-02-27T17:53:55.965Z,100224.09
2023-02-27T17:56:58.119Z,100220.66
2023-02-27T18:00:00.233Z,100217.34
2023-02-27T18:03:02.483Z,100230.09
2023-02-27T18:06:06.486Z,100230.94
2023-02-27T18:09:09.182Z,100234.44
2023-02-27T18:12:11.501Z,100241.19
2023-02-27T18:15:13.621Z,100240.28
2023-02-27T18:18:16.884Z,100241.16
2023-02-27T18:21:21.420Z,100247.94
2023-02-27T18:24:24.127Z,100241.28
2023-02-27T18:27:28.053Z,100256.38
2023-02-27T18:30:33.553Z,100267.28
2023-02-27T18:33:35.715Z,100259.69
2023-02-27T18:36:38.776Z,100263.16
2023-02-27T18:40:12.751Z,100268.19
2023-02-27T18:43:47.349Z,100278.31
2023-02-27T18:52:28.848Z,100272.41
2023-02-27T19:01:38.615Z,100287.69
2023-02-27T19:05:20.701Z,100292.78
2023-02-27T19:09:30.881Z,100292.75
2023-02-27T19:12:52.635Z,100287.69
2023-02-27T19:15:55.800Z,100287.75
2023-02-27T19:18:58.967Z,100287.00
2023-02-27T19:22:01.050Z,100299.59
2023-02-27T19:25:03.176Z,100306.34
2023-02-27T19:28:06.441Z,100303.88
2023-02-27T19:31:12.355Z,100296.22
2023-02-27T19:34:14.971Z,100304.72
2023-02-27T19:37:17.482Z,100308.09
2023-02-27T19:40:21.491Z,100312.31
2023-02-27T19:43:23.660Z,100300.53
2023-02-27T19:46:29.325Z,100310.66
2023-02-27T19:49:31.840Z,100307.25
2023-02-27T19:52:37.604Z,100299.66
2023-02-27T19:55:39.615Z,100300.53
2023-02-27T19:58:42.368Z,100303.09
2023-02-27T20:01:44.571Z,100305.56
2023-02-27T20:04:46.888Z,100295.50
2023-02-27T20:07:49.368Z,100297.22
2023-02-27T20:10:59.172Z,100292.16
2023-02-27T20:14:02.435Z,100301.44
2023-02-27T20:17:04.554Z,100294.75
2023-02-27T20:20:07.463Z,100310.72
2023-02-27T20:23:09.655Z,100314.13
2023-02-27T20:26:23.602Z,100313.31
2023-02-27T20:29:28.006Z,100323.44
2023-02-27T20:32:29.980Z,100318.38
2023-02-27T20:35:32.456Z,100311.69
2023-02-27T20:38:39.139Z,100321.81
2023-02-27T20:41:41.366Z,100310.03
2023-02-27T20:44:43.725Z,100326.81
2023-02-27T20:47:45.833Z,100315.84
2023-02-27T20:50:48.079Z,100333.53
2023-02-27T20:53:53.501Z,100328.56
2023-02-27T20:56:56.673Z,100326.06
2023-02-27T20:59:58.806Z,100320.94
2023-02-27T21:03:03.617Z,100326.00
2023-02-27T21:06:07.489Z,100344.63
2023-02-27T21:09:10.942Z,100337.06
2023-02-27T21:12:13.270Z,100354.75
2023-02-27T21:15:15.287Z,100350.53
2023-02-27T21:18:17.212Z,100346.28
2023-02-27T21:21:23.328Z,100334.47
2023-02-27T21:24:25.542Z,100329.44
2023-02-27T21:27:27.728Z,100337.03
2023-02-27T21:30:30.148Z,100329.47
2023-02-27T21:33:32.139Z,100335.38
2023-02-27T21:36:42.222Z,100316.78
2023-02-27T21:39:50.471Z,100315.16
2023-02-27T21:42:53.036Z,100320.22
2023-02-27T21:45:56.021Z,100327.78
2023-02-27T21:48:58.487Z,100341.25
2023-02-27T21:52:00.404Z,100339.59
2023-02-27T21:55:03.162Z,100348.88
2023-02-27T21:58:07.501Z,100354.75
2023-02-27T22:01:17.899Z,100358.97
2023-02-27T22:04:20.358Z,100364.91
2023-02-27T22:07:22.443Z,100355.66
2023-02-27T22:10:24.796Z,100348.03
2023-02-27T22:13:27.328Z,100351.44
2023-02-27T22:16:29.362Z,100360.69
2023-02-27T22:19:31.192Z,100360.69
2023-02-27T22:22:33.453Z,100378.41
2023-02-27T22:25:36.398Z,100371.66
2023-02-27T22:28:41.286Z,100367.44
2023-02-27T22:31:43.891Z,100363.25
2023-02-27T22:34:45.867Z,100365.81
2023-02-27T22:37:48.092Z,100380.13
2023-02-27T22:40:50.124Z,100389.41
2023-02-27T22:43:52.420Z,100387.75
2023-02-27T22:46:55.842Z,100391.97
2023-02-27T22:49:58.608Z,100386.06
2023-02-27T22:53:00.515Z,100394.50
2023-02-27T22:56:02.449Z,100380.13
2023-02-27T22:59:06.044Z,100377.59
2023-02-27T23:02:08.257Z,100370.03
2023-02-27T23:05:10.831Z,100364.09
2023-02-27T23:08:12.751Z,100376.78
2023-02-27T23:11:16.109Z,100354.03
2023-02-27T23:14:19.952Z,100362.47
2023-02-27T23:17:21.790Z,100362.44
2023-02-27T23:20:23.687Z,100364.13
2023-02-27T23:23:28.343Z,100358.25
2023-02-27T23:26:30.234Z,100363.28
2023-02-27T23:29:32.339Z,100372.56
2023-02-27T23:32:43.418Z,100364.16
2023-02-27T23:35:45.370Z,100371.72
2023-02-27T23:38:47.744Z,100368.38
2023-02-27T23:41:49.758Z,100374.25
2023-02-27T23:44:51.947Z,100370.91
2023-02-27T23:47:56.002Z,100386.88
2023-02-27T23:50:58.182Z,100374.25
2023-02-27T23:54:00.311Z,100379.31
2023-02-27T23:57:02.218Z,100386.88
